Time;durP1;ratioP1;P1;durP2;ratioP2;P2;SDS_P1;SDS_P2;PMS_P1;PMS_P2;Temp;Humidity;BMP_temperature;BMP_pressure;BME280_temperature;BME280_humidity;BME280_pressure;Samples;Min_cycle;Max_cycle;Signal;HPM_P1;HPM_P2
2022/11/04 00:01:13;;;;;;;11.60;7.37;;;9.60;99.90;;;;;;5035958;28;20199;-74
2022/11/04 00:03:38;;;;;;;8.00;5.90;;;9.60;99.90;;;;;;5036488;28;20231;-75
2022/11/04 00:06:04;;;;;;;7.20;6.27;;;9.60;99.90;;;;;;5036428;28;20188;-75
2022/11/04 00:08:30;;;;;;;7.10;5.87;;;9.60;99.90;;;;;;5037254;28;20705;-75
2022/11/04 00:13:41;;;;;;;9.50;6.90;;;9.60;99.90;;;;;;5036115;28;20754;-75
2022/11/04 00:18:51;;;;;;;8.80;5.97;;;9.60;99.90;;;;;;5029338;28;20217;-74
2022/11/04 00:29:29;;;;;;;11.70;7.10;;;9.60;99.90;;;;;;5033421;28;20239;-74
2022/11/04 00:34:38;;;;;;;13.07;6.90;;;9.60;99.90;;;;;;5034005;28;20233;-73
2022/11/04 00:37:03;;;;;;;10.40;7.13;;;9.60;99.90;;;;;;5036732;28;20222;-73
2022/11/04 00:39:29;;;;;;;11.67;7.03;;;9.50;99.90;;;;;;5039595;28;20329;-74
2022/11/04 00:41:54;;;;;;;12.17;7.30;;;9.50;99.90;;;;;;5039433;28;20192;-75
2022/11/04 00:44:20;;;;;;;10.27;7.07;;;9.50;99.90;;;;;;5039141;28;20196;-74
2022/11/04 00:46:45;;;;;;;8.23;6.70;;;9.40;99.90;;;;;;5037170;28;20645;-72
2022/11/04 00:49:11;;;;;;;11.67;6.80;;;9.40;99.90;;;;;;5039528;28;20234;-73
2022/11/04 00:51:37;;;;;;;10.53;7.33;;;9.40;99.90;;;;;;5039489;28;20226;-73
2022/11/04 00:54:03;;;;;;;9.83;7.73;;;9.30;99.90;;;;;;5039349;28;20254;-72
2022/11/04 00:56:29;;;;;;;12.60;7.60;;;9.30;99.90;;;;;;5028336;28;20217;-73
2022/11/04 00:58:54;;;;;;;12.97;7.67;;;9.30;99.90;;;;;;5029069;28;20206;-73
2022/11/04 01:01:20;;;;;;;12.93;7.37;;;9.30;99.90;;;;;;5026572;28;20200;-74
2022/11/04 01:03:51;;;;;;;10.97;7.30;;;9.20;99.90;;;;;;5027046;28;20234;-75
2022/11/04 01:06:19;;;;;;;8.53;7.63;;;9.20;99.90;;;;;;5028682;28;20333;-74
2022/11/04 01:08:44;;;;;;;12.80;8.67;;;9.20;99.90;;;;;;5031470;28;20258;-74
2022/11/04 01:11:11;;;;;;;11.33;7.90;;;9.20;99.90;;;;;;5024913;28;20207;-74
2022/11/04 01:13:38;;;;;;;10.20;7.90;;;9.20;99.90;;;;;;5028936;28;20255;-74
2022/11/04 01:16:07;;;;;;;10.67;7.80;;;9.20;99.90;;;;;;5031716;28;20219;-74
2022/11/04 01:18:32;;;;;;;11.63;8.03;;;9.10;99.90;;;;;;5027087;28;20282;-74
2022/11/04 01:21:02;;;;;;;10.63;7.43;;;9.10;99.90;;;;;;5028250;28;20958;-75
2022/11/04 01:23:28;;;;;;;11.27;7.60;;;9.10;99.90;;;;;;5028184;28;20200;-76
2022/11/04 01:25:54;;;;;;;10.53;7.43;;;9.10;99.90;;;;;;5028410;28;20569;-76
2022/11/04 01:28:19;;;;;;;11.13;7.37;;;9.10;99.90;;;;;;5028477;28;20199;-75
2022/11/04 01:30:45;;;;;;;9.23;7.83;;;9.10;99.90;;;;;;5031049;28;20235;-74
2022/11/04 01:33:10;;;;;;;12.53;8.30;;;9.10;99.90;;;;;;5025130;28;21114;-74
2022/11/04 01:35:35;;;;;;;10.47;8.13;;;9.10;99.90;;;;;;5027209;28;20207;-73
2022/11/04 01:38:01;;;;;;;19.97;9.07;;;9.10;99.90;;;;;;5028952;28;20195;-74
2022/11/04 01:40:26;;;;;;;11.03;8.63;;;9.10;99.90;;;;;;5033775;28;20195;-73
2022/11/04 01:42:52;;;;;;;12.73;8.07;;;9.10;99.90;;;;;;5038413;28;20203;-74
2022/11/04 01:45:19;;;;;;;9.43;8.13;;;9.10;99.90;;;;;;5038533;28;20200;-73
2022/11/04 01:48:06;;;;;;;17.30;8.77;;;9.10;99.90;;;;;;5036243;28;20204;-74
2022/11/04 01:50:35;;;;;;;13.07;7.40;;;9.10;99.90;;;;;;5038200;28;20216;-73
2022/11/04 01:53:28;;;;;;;14.77;9.23;;;9.20;99.90;;;;;;5034858;28;20217;-74
2022/11/04 01:55:57;;;;;;;13.47;8.67;;;9.20;99.90;;;;;;5035517;28;20235;-73
2022/11/04 01:58:28;;;;;;;12.17;8.40;;;9.20;99.90;;;;;;5038473;28;20682;-73
2022/11/04 02:00:54;;;;;;;12.67;8.33;;;9.20;99.90;;;;;;5036887;28;20248;-73
2022/11/04 02:03:31;;;;;;;11.13;8.27;;;9.20;99.90;;;;;;5038684;28;20206;-72
2022/11/04 02:05:56;;;;;;;11.07;8.03;;;9.20;99.90;;;;;;5038058;28;20215;-72
2022/11/04 02:08:23;;;;;;;12.33;8.13;;;9.30;99.90;;;;;;5036322;28;20721;-72
2022/11/04 02:11:00;;;;;;;10.37;7.87;;;9.30;99.90;;;;;;5037813;28;20213;-72
2022/11/04 02:13:31;;;;;;;9.20;7.27;;;9.30;99.90;;;;;;5037970;28;20558;-72
2022/11/04 02:16:19;;;;;;;12.03;8.43;;;9.30;99.90;;;;;;5038032;28;20276;-72
2022/11/04 02:19:01;;;;;;;13.83;8.43;;;9.40;99.90;;;;;;5037887;28;20216;-76
2022/11/04 02:22:13;;;;;;;12.33;8.57;;;9.40;99.90;;;;;;5038423;28;20299;-75
2022/11/04 02:24:53;;;;;;;11.07;7.90;;;9.40;99.90;;;;;;5038396;28;20294;-75
2022/11/04 02:27:51;;;;;;;8.73;7.73;;;9.40;99.90;;;;;;5038633;28;20226;-75
2022/11/04 02:30:18;;;;;;;17.63;8.57;;;9.40;99.90;;;;;;5038215;28;20200;-72
2022/11/04 02:33:02;;;;;;;11.03;8.50;;;9.40;99.90;;;;;;5037961;28;20215;-73
2022/11/04 02:36:18;;;;;;;14.23;8.87;;;9.30;99.90;;;;;;5037485;28;20214;-73
2022/11/04 02:38:56;;;;;;;10.40;7.53;;;9.30;99.90;;;;;;5015622;28;20198;-71
2022/11/04 02:41:38;;;;;;;17.10;9.03;;;9.20;99.90;;;;;;5029020;28;20254;-73
2022/11/04 02:44:17;;;;;;;16.27;8.40;;;9.20;99.90;;;;;;5033907;28;20314;-74
2022/11/04 02:46:58;;;;;;;10.60;8.13;;;9.20;99.90;;;;;;5037274;28;20212;-71
2022/11/04 02:49:32;;;;;;;9.83;7.90;;;9.20;99.90;;;;;;5028444;28;20199;-76
2022/11/04 02:52:03;;;;;;;14.03;7.70;;;9.10;99.90;;;;;;5037347;28;20692;-76
2022/11/04 02:54:33;;;;;;;13.30;8.60;;;9.10;99.90;;;;;;5035328;28;20314;-76
2022/11/04 02:57:02;;;;;;;11.40;9.03;;;9.10;99.90;;;;;;5037480;28;20206;-75
2022/11/04 02:59:39;;;;;;;9.63;8.17;;;9.10;99.90;;;;;;5036587;28;20250;-73
2022/11/04 03:02:09;;;;;;;11.03;7.67;;;9.20;99.90;;;;;;5035449;28;20225;-74
2022/11/04 03:04:40;;;;;;;11.80;8.13;;;9.20;99.90;;;;;;5037507;28;20250;-74
2022/11/04 03:07:09;;;;;;;13.33;9.20;;;9.20;99.90;;;;;;5035471;28;20684;-75
2022/11/04 03:09:37;;;;;;;10.50;7.90;;;9.30;99.90;;;;;;5032969;28;20264;-74
2022/11/04 03:12:08;;;;;;;12.97;8.30;;;9.30;99.90;;;;;;5036823;28;20194;-74
2022/11/04 03:14:38;;;;;;;12.93;7.20;;;9.30;99.90;;;;;;5036854;28;20637;-74
2022/11/04 03:17:13;;;;;;;11.17;8.37;;;9.40;99.90;;;;;;5037049;28;20257;-72
2022/11/04 03:19:56;;;;;;;9.97;7.47;;;9.40;99.90;;;;;;5036489;28;20207;-75
2022/11/04 03:22:28;;;;;;;8.60;7.70;;;9.40;99.90;;;;;;5037154;28;20668;-75
2022/11/04 03:24:54;;;;;;;10.00;8.43;;;9.50;99.90;;;;;;5036857;28;20219;-76
2022/11/04 03:27:37;;;;;;;11.63;7.77;;;9.50;99.90;;;;;;5036477;28;20211;-74
2022/11/04 03:30:08;;;;;;;12.57;9.40;;;9.50;99.90;;;;;;5027104;28;20215;-74
2022/11/04 03:33:03;;;;;;;13.30;8.13;;;9.50;99.90;;;;;;5030912;28;20196;-74
2022/11/04 03:35:29;;;;;;;12.07;9.03;;;9.50;99.90;;;;;;5037363;28;20221;-75
2022/11/04 03:37:55;;;;;;;12.50;8.27;;;9.60;99.90;;;;;;5035794;28;20206;-75
2022/11/04 03:40:21;;;;;;;11.03;7.83;;;9.60;99.90;;;;;;5037457;28;20203;-74
2022/11/04 03:42:56;;;;;;;9.43;7.57;;;9.60;99.90;;;;;;5034123;28;20206;-73
2022/11/04 03:45:22;;;;;;;13.83;9.23;;;9.60;99.90;;;;;;5036517;28;20218;-73
2022/11/04 03:47:49;;;;;;;10.07;8.97;;;9.60;99.90;;;;;;5036348;28;20220;-73
2022/11/04 03:50:27;;;;;;;14.23;9.00;;;9.60;99.90;;;;;;5036048;28;20700;-74
2022/11/04 03:52:54;;;;;;;10.83;7.73;;;9.70;99.90;;;;;;5035700;28;20213;-74
2022/11/04 03:55:21;;;;;;;10.00;8.70;;;9.70;99.90;;;;;;5036169;28;20244;-75
2022/11/04 03:57:53;;;;;;;12.87;7.70;;;9.70;99.90;;;;;;5035796;28;20212;-74
2022/11/04 04:00:21;;;;;;;10.00;7.63;;;9.70;99.90;;;;;;5036228;28;20193;-74
2022/11/04 04:03:07;;;;;;;13.87;8.33;;;9.70;99.90;;;;;;5035889;28;20212;-74
2022/11/04 04:05:51;;;;;;;10.93;7.73;;;9.70;99.90;;;;;;5035915;28;20605;-71
2022/11/04 04:08:44;;;;;;;12.73;7.83;;;9.70;99.90;;;;;;5034895;28;20660;-67
2022/11/04 04:11:22;;;;;;;12.87;8.07;;;9.80;99.90;;;;;;5030476;28;20204;-73
2022/11/04 04:14:02;;;;;;;10.97;6.97;;;9.70;99.90;;;;;;5036844;28;20212;-73
2022/11/04 04:16:41;;;;;;;13.17;7.93;;;9.70;99.90;;;;;;5037781;28;20974;-72
2022/11/04 04:19:25;;;;;;;9.43;7.73;;;9.70;99.90;;;;;;5040031;28;20194;-73
2022/11/04 04:21:57;;;;;;;11.47;8.30;;;9.70;99.90;;;;;;5039787;28;20214;-74
2022/11/04 04:27:30;;;;;;;11.70;8.00;;;9.70;99.90;;;;;;5040523;28;21013;-73
2022/11/04 04:30:02;;;;;;;8.73;6.87;;;9.70;99.90;;;;;;5039619;28;20209;-74
2022/11/04 04:32:34;;;;;;;10.10;8.13;;;9.70;99.90;;;;;;5039718;28;20205;-74
2022/11/04 04:37:44;;;;;;;10.43;8.10;;;9.80;99.90;;;;;;5040144;28;20325;-74
2022/11/04 04:46:00;;;;;;;11.57;8.53;;;9.80;99.90;;;;;;5033408;28;20602;-74
2022/11/04 04:48:25;;;;;;;15.40;8.17;;;9.80;99.90;;;;;;5037997;28;20214;-73
2022/11/04 04:50:55;;;;;;;8.67;7.73;;;9.80;99.90;;;;;;5039594;28;20211;-75
2022/11/04 04:53:21;;;;;;;15.33;8.40;;;9.80;99.90;;;;;;5039783;28;20208;-75
2022/11/04 04:55:47;;;;;;;12.90;8.40;;;9.90;99.90;;;;;;5038743;28;20234;-75
2022/11/04 04:58:12;;;;;;;12.87;8.30;;;9.80;99.90;;;;;;5039350;28;20211;-75
2022/11/04 05:00:38;;;;;;;10.43;7.83;;;9.80;99.90;;;;;;5037684;28;20245;-75
2022/11/04 05:03:04;;;;;;;9.63;8.27;;;9.90;99.90;;;;;;5039414;28;20225;-76
2022/11/04 05:05:29;;;;;;;12.27;8.43;;;9.90;99.90;;;;;;5039335;28;20681;-77
2022/11/04 05:07:54;;;;;;;13.43;8.43;;;9.90;99.90;;;;;;5040861;28;20197;-76
2022/11/04 05:10:20;;;;;;;9.47;8.00;;;9.90;99.90;;;;;;5035637;28;20200;-76
2022/11/04 05:15:30;;;;;;;13.33;8.20;;;10.00;99.90;;;;;;5038863;28;20230;-76
2022/11/04 05:17:58;;;;;;;13.07;8.30;;;10.00;99.90;;;;;;5033212;28;20230;-80
2022/11/04 05:20:23;;;;;;;11.93;8.53;;;10.10;99.90;;;;;;5032704;28;20215;-75
2022/11/04 05:22:49;;;;;;;10.33;8.93;;;10.10;99.90;;;;;;5036347;28;20198;-75
2022/11/04 05:25:15;;;;;;;8.73;7.77;;;10.10;99.90;;;;;;5038220;28;20193;-80
2022/11/04 05:27:40;;;;;;;9.63;8.33;;;10.10;99.90;;;;;;5038024;28;20680;-73
2022/11/04 05:30:07;;;;;;;13.00;8.20;;;10.10;99.90;;;;;;5038861;28;20213;-76
2022/11/04 05:32:32;;;;;;;10.10;8.93;;;10.10;99.90;;;;;;5038602;28;20216;-77
2022/11/04 05:34:58;;;;;;;9.93;7.47;;;10.20;99.90;;;;;;5037126;28;20591;-75
2022/11/04 05:37:24;;;;;;;10.53;8.03;;;10.10;99.90;;;;;;5034829;28;20472;-72
2022/11/04 05:39:50;;;;;;;11.27;9.13;;;10.20;99.90;;;;;;5038108;28;20703;-72
2022/11/04 05:42:16;;;;;;;10.77;8.30;;;10.20;99.90;;;;;;5038028;28;20189;-74
2022/11/04 05:44:42;;;;;;;11.97;9.17;;;10.20;99.90;;;;;;5033755;28;20698;-76
2022/11/04 05:47:08;;;;;;;13.83;9.67;;;10.20;99.90;;;;;;5034805;28;20234;-75
2022/11/04 05:49:34;;;;;;;11.03;9.03;;;10.20;99.90;;;;;;5027275;28;20208;-75
2022/11/04 05:51:59;;;;;;;11.07;8.57;;;10.20;99.90;;;;;;5028167;28;20572;-75
2022/11/04 05:54:25;;;;;;;13.13;9.87;;;10.20;99.90;;;;;;5027738;28;20583;-76
2022/11/04 05:56:51;;;;;;;10.60;9.50;;;10.20;99.90;;;;;;5035425;28;20187;-76
2022/11/04 05:59:16;;;;;;;10.13;8.37;;;10.20;99.90;;;;;;5041867;28;20207;-77
2022/11/04 06:01:42;;;;;;;8.77;7.93;;;10.20;99.90;;;;;;5028636;28;20615;-75
2022/11/04 06:04:13;;;;;;;10.33;9.00;;;10.20;99.90;;;;;;5033776;28;20239;-76
2022/11/04 06:06:39;;;;;;;16.00;9.00;;;10.20;99.90;;;;;;5035903;28;20196;-77
2022/11/04 06:09:04;;;;;;;12.33;8.80;;;10.20;99.90;;;;;;5030589;28;20201;-76
2022/11/04 06:11:31;;;;;;;15.90;8.93;;;10.20;99.90;;;;;;5027624;28;20216;-76
2022/11/04 06:13:57;;;;;;;11.53;9.10;;;10.20;99.90;;;;;;5027026;28;20678;-77
2022/11/04 06:16:23;;;;;;;10.90;8.77;;;10.20;99.90;;;;;;5027681;28;20252;-77
2022/11/04 06:18:48;;;;;;;11.27;9.60;;;10.20;99.90;;;;;;5027492;28;20223;-75
2022/11/04 06:21:14;;;;;;;14.90;9.60;;;10.20;99.90;;;;;;5027675;28;20203;-74
2022/11/04 06:23:40;;;;;;;14.63;9.87;;;10.30;99.90;;;;;;5027837;28;20197;-78
2022/11/04 06:26:06;;;;;;;10.93;9.43;;;10.30;99.90;;;;;;5027064;28;20201;-75
2022/11/04 06:28:33;;;;;;;12.67;9.53;;;10.30;99.90;;;;;;5027736;28;20250;-74
2022/11/04 06:31:00;;;;;;;11.60;10.40;;;10.30;99.90;;;;;;5027687;28;20216;-75
2022/11/04 06:33:27;;;;;;;13.13;10.40;;;10.30;99.90;;;;;;5026687;28;20218;-74
2022/11/04 06:35:59;;;;;;;14.03;9.70;;;10.30;99.90;;;;;;5027778;28;20237;-74
2022/11/04 06:38:25;;;;;;;15.93;10.13;;;10.40;99.90;;;;;;5027960;28;20472;-67
2022/11/04 06:40:51;;;;;;;14.57;9.33;;;10.40;99.90;;;;;;5025316;28;20207;-66
2022/11/04 06:43:16;;;;;;;13.13;10.23;;;10.40;99.90;;;;;;5026959;28;20278;-66
2022/11/04 06:45:42;;;;;;;12.27;10.43;;;10.40;99.90;;;;;;5029143;28;20800;-65
2022/11/04 06:48:07;;;;;;;14.00;10.07;;;10.40;99.90;;;;;;5024422;28;20206;-67
2022/11/04 06:50:33;;;;;;;16.30;10.40;;;10.40;99.90;;;;;;5030534;28;20654;-68
2022/11/04 06:52:58;;;;;;;13.00;11.07;;;10.40;99.90;;;;;;5030557;28;20219;-66
2022/11/04 06:55:24;;;;;;;16.07;12.47;;;10.40;99.90;;;;;;5027246;28;20224;-67
2022/11/04 06:57:50;;;;;;;14.80;11.27;;;10.30;99.90;;;;;;5027882;28;20635;-64
2022/11/04 07:00:15;;;;;;;11.80;9.87;;;10.40;99.90;;;;;;5027007;28;20244;-65
2022/11/04 07:02:41;;;;;;;11.37;10.27;;;10.40;99.90;;;;;;5027702;28;20220;-66
2022/11/04 07:05:07;;;;;;;13.10;11.27;;;10.40;99.90;;;;;;5027438;28;20727;-66
2022/11/04 07:07:33;;;;;;;16.20;11.77;;;10.30;99.90;;;;;;5025525;28;20207;-66
2022/11/04 07:09:58;;;;;;;17.03;12.87;;;10.40;99.90;;;;;;5025780;28;20529;-66
2022/11/04 07:12:24;;;;;;;14.03;11.33;;;10.30;99.90;;;;;;5024785;28;20205;-67
2022/11/04 07:14:50;;;;;;;17.53;12.73;;;10.30;99.90;;;;;;5026507;28;20681;-65
2022/11/04 07:17:16;;;;;;;13.70;11.43;;;10.40;99.90;;;;;;5026236;28;20210;-65
2022/11/04 07:19:42;;;;;;;13.90;11.57;;;10.30;99.90;;;;;;5025651;28;20199;-75
2022/11/04 07:22:07;;;;;;;16.90;12.63;;;10.40;99.90;;;;;;5022256;28;20203;-75
2022/11/04 07:24:33;;;;;;;16.20;12.27;;;10.40;99.90;;;;;;5027199;28;20187;-77
2022/11/04 07:26:59;;;;;;;13.93;12.47;;;10.40;99.90;;;;;;5025548;28;20276;-76
2022/11/04 07:29:24;;;;;;;16.07;11.97;;;10.40;99.90;;;;;;5021057;28;20187;-79
2022/11/04 07:31:50;;;;;;;15.13;12.40;;;10.40;99.90;;;;;;5024715;28;20201;-76
2022/11/04 07:34:15;;;;;;;18.13;12.63;;;10.50;99.90;;;;;;5026879;28;20222;-79
2022/11/04 07:36:41;;;;;;;16.70;12.27;;;10.60;99.90;;;;;;5027792;28;20253;-80
2022/11/04 07:39:06;;;;;;;13.57;11.83;;;10.70;99.90;;;;;;5028330;28;20201;-80
2022/11/04 07:41:32;;;;;;;14.70;11.53;;;10.80;99.90;;;;;;5025672;28;20234;-81
2022/11/04 07:43:59;;;;;;;12.70;11.50;;;10.90;99.90;;;;;;5025708;28;20687;-77
2022/11/04 07:46:25;;;;;;;12.53;11.17;;;11.00;99.90;;;;;;5024362;28;20200;-82
2022/11/04 07:48:50;;;;;;;13.20;10.80;;;11.00;99.90;;;;;;5025637;28;20207;-84
2022/11/04 07:51:18;;;;;;;12.30;11.07;;;11.10;99.90;;;;;;5026582;28;20319;-80
2022/11/04 07:53:43;;;;;;;16.60;11.97;;;11.10;99.90;;;;;;5016878;28;20217;-80
2022/11/04 07:56:12;;;;;;;14.53;10.83;;;11.10;99.90;;;;;;5025878;28;20225;-79
2022/11/04 07:58:37;;;;;;;12.33;10.57;;;11.10;99.90;;;;;;5024926;28;20211;-82
2022/11/04 08:01:06;;;;;;;13.27;11.47;;;11.10;99.90;;;;;;5028476;28;20571;-72
2022/11/04 08:03:35;;;;;;;13.50;11.80;;;11.10;99.90;;;;;;5034145;28;20586;-72
2022/11/04 08:06:02;;;;;;;17.50;10.37;;;11.20;99.90;;;;;;5034071;28;20242;-81
2022/11/04 08:08:28;;;;;;;13.57;10.60;;;11.30;99.90;;;;;;5030577;28;20303;-72
2022/11/04 08:10:55;;;;;;;16.43;9.97;;;11.40;99.90;;;;;;5024447;28;20893;-72
2022/11/04 08:13:21;;;;;;;16.80;11.90;;;11.50;99.90;;;;;;5025031;28;20540;-74
2022/11/04 08:15:47;;;;;;;12.67;11.37;;;11.60;99.90;;;;;;5024098;28;20229;-73
2022/11/04 08:18:12;;;;;;;11.23;9.07;;;11.60;99.90;;;;;;5023603;28;20676;-74
2022/11/04 08:20:38;;;;;;;14.13;10.83;;;11.70;99.90;;;;;;5024068;28;20203;-73
2022/11/04 08:23:03;;;;;;;10.70;9.67;;;11.70;99.90;;;;;;5024292;28;20253;-74
2022/11/04 08:25:29;;;;;;;10.83;9.73;;;11.70;99.90;;;;;;5023925;28;20211;-77
2022/11/04 08:27:54;;;;;;;11.93;9.87;;;11.70;99.90;;;;;;5024951;28;20298;-76
2022/11/04 08:30:20;;;;;;;10.67;9.17;;;11.70;99.90;;;;;;5024818;28;20207;-75
2022/11/04 08:32:45;;;;;;;11.07;9.13;;;11.70;99.90;;;;;;5021984;28;20207;-72
2022/11/04 08:35:11;;;;;;;10.33;9.00;;;11.60;99.90;;;;;;5026184;28;20265;-70
2022/11/04 08:37:37;;;;;;;11.93;9.37;;;11.60;99.90;;;;;;5027103;28;20814;-72
2022/11/04 08:40:03;;;;;;;9.97;8.93;;;11.60;99.90;;;;;;5025006;28;20769;-67
2022/11/04 08:42:29;;;;;;;15.10;9.87;;;11.60;99.90;;;;;;5023172;28;20233;-73
2022/11/04 08:44:54;;;;;;;10.37;8.97;;;11.60;99.90;;;;;;5021369;28;20925;-72
2022/11/04 08:47:20;;;;;;;10.87;9.27;;;11.60;99.90;;;;;;5024953;28;20235;-73
2022/11/04 08:49:45;;;;;;;15.77;9.80;;;11.60;99.90;;;;;;5018960;28;20265;-72
2022/11/04 08:52:11;;;;;;;8.97;8.17;;;11.60;99.90;;;;;;5022559;28;20209;-63
2022/11/04 08:54:36;;;;;;;10.20;9.13;;;11.60;99.90;;;;;;5023728;28;20746;-63
2022/11/04 08:57:02;;;;;;;11.00;9.07;;;11.60;99.90;;;;;;5022895;28;20231;-64
2022/11/04 08:59:28;;;;;;;11.57;8.63;;;11.60;99.90;;;;;;5025927;28;20670;-65
2022/11/04 09:01:53;;;;;;;14.80;8.30;;;11.60;99.90;;;;;;5037714;28;20210;-64
2022/11/04 09:04:19;;;;;;;12.00;8.67;;;11.60;99.90;;;;;;5030477;28;20285;-65
2022/11/04 09:06:45;;;;;;;10.27;8.87;;;11.60;99.90;;;;;;5029826;28;20687;-64
2022/11/04 09:09:14;;;;;;;10.07;8.77;;;11.60;99.90;;;;;;5028758;28;20225;-64
2022/11/04 09:11:41;;;;;;;9.50;8.23;;;11.60;99.90;;;;;;5027976;28;20285;-69
2022/11/04 09:14:07;;;;;;;10.80;9.70;;;11.50;99.90;;;;;;5023060;28;20229;-73
2022/11/04 09:16:34;;;;;;;11.07;7.97;;;11.50;99.90;;;;;;5028018;28;20217;-73
2022/11/04 09:19:00;;;;;;;11.03;8.40;;;11.50;99.90;;;;;;5027880;28;20212;-73
2022/11/04 09:21:27;;;;;;;12.30;9.43;;;11.50;99.90;;;;;;5026056;28;20193;-65
2022/11/04 09:23:53;;;;;;;10.57;8.20;;;11.40;99.90;;;;;;5026466;28;20311;-65
2022/11/04 09:26:19;;;;;;;12.00;9.37;;;11.40;99.90;;;;;;5028526;28;20311;-65
2022/11/04 09:28:45;;;;;;;11.80;8.73;;;11.40;99.90;;;;;;5025985;28;20771;-65
2022/11/04 09:31:14;;;;;;;10.40;8.83;;;11.40;99.90;;;;;;5028273;28;20308;-65
2022/11/04 09:33:39;;;;;;;10.70;8.77;;;11.50;99.90;;;;;;5028653;28;20203;-66
2022/11/04 09:36:06;;;;;;;9.93;8.97;;;11.50;99.90;;;;;;5027944;28;20222;-65
2022/11/04 09:38:32;;;;;;;12.07;9.40;;;11.50;99.90;;;;;;5027546;28;20266;-65
2022/11/04 09:40:58;;;;;;;9.53;8.63;;;11.50;99.90;;;;;;5028217;28;20228;-65
2022/11/04 09:43:50;;;;;;;12.37;8.23;;;11.50;99.90;;;;;;5025217;28;20660;-65
2022/11/04 09:46:15;;;;;;;12.47;8.03;;;11.50;99.90;;;;;;5025302;28;20206;-66
2022/11/04 09:48:46;;;;;;;23.13;14.93;;;11.50;99.90;;;;;;5028190;28;20212;-66
2022/11/04 09:51:15;;;;;;;10.90;8.47;;;11.60;99.90;;;;;;5027457;28;20219;-65
2022/11/04 09:53:45;;;;;;;9.73;8.73;;;11.60;99.90;;;;;;5027408;28;20631;-66
2022/11/04 09:56:19;;;;;;;15.20;9.80;;;11.60;99.90;;;;;;5026946;28;20308;-65
2022/11/04 09:58:44;;;;;;;14.53;9.47;;;11.70;99.90;;;;;;5027100;28;20394;-65
2022/11/04 10:01:18;;;;;;;10.87;9.17;;;11.70;99.90;;;;;;5025597;28;20934;-68
2022/11/04 10:04:05;;;;;;;19.73;10.10;;;11.80;99.90;;;;;;5028265;28;20687;-68
2022/11/04 10:06:56;;;;;;;14.87;9.73;;;11.80;99.90;;;;;;5028131;28;20203;-66
2022/11/04 10:09:47;;;;;;;10.43;8.57;;;11.80;99.90;;;;;;5026750;28;20200;-67
2022/11/04 10:12:23;;;;;;;14.17;9.20;;;11.80;99.90;;;;;;5025943;28;20222;-66
2022/11/04 10:15:12;;;;;;;10.70;8.93;;;11.80;99.90;;;;;;5026990;28;20226;-73
2022/11/04 10:18:01;;;;;;;27.80;10.67;;;11.80;99.90;;;;;;5024144;28;20191;-72
2022/11/04 10:20:35;;;;;;;36.80;12.07;;;11.80;99.90;;;;;;5027177;28;20195;-73
2022/11/04 10:23:18;;;;;;;11.20;9.00;;;11.80;99.90;;;;;;5024185;28;20685;-74
2022/11/04 10:26:07;;;;;;;11.37;8.23;;;11.70;99.90;;;;;;5030228;28;20199;-78
2022/11/04 10:28:40;;;;;;;10.50;9.30;;;11.70;99.90;;;;;;5038090;28;20201;-85
2022/11/04 10:31:07;;;;;;;10.83;9.23;;;11.70;99.90;;;;;;5030212;28;20264;-67
2022/11/04 10:33:38;;;;;;;10.17;9.03;;;11.60;99.90;;;;;;5025267;28;20205;-67
2022/11/04 10:36:09;;;;;;;10.97;8.43;;;11.60;99.90;;;;;;5025919;28;20315;-67
2022/11/04 10:38:42;;;;;;;9.73;8.17;;;11.60;99.90;;;;;;5024261;28;20206;-66
2022/11/04 10:41:23;;;;;;;10.37;8.20;;;11.60;99.90;;;;;;5025269;28;20290;-67
2022/11/04 10:43:50;;;;;;;10.37;8.43;;;11.60;99.90;;;;;;5026950;28;20210;-67
2022/11/04 10:46:42;;;;;;;9.60;8.53;;;11.60;99.90;;;;;;5027993;28;20570;-65
2022/11/04 10:49:39;;;;;;;8.97;8.03;;;11.70;99.90;;;;;;5029181;28;20230;-65
2022/11/04 10:52:06;;;;;;;10.30;9.30;;;11.80;99.90;;;;;;5026165;28;20191;-65
2022/11/04 10:54:42;;;;;;;9.00;7.73;;;11.60;99.90;;;;;;5026017;28;20235;-65
2022/11/04 10:57:10;;;;;;;10.20;7.70;;;11.70;99.90;;;;;;5028185;28;20214;-66
2022/11/04 10:59:59;;;;;;;8.37;7.47;;;11.60;99.90;;;;;;5025203;28;20249;-67
2022/11/04 11:02:37;;;;;;;8.60;7.63;;;11.50;99.90;;;;;;5025832;28;20557;-66
2022/11/04 11:05:18;;;;;;;9.43;8.47;;;11.40;99.90;;;;;;5023122;28;20201;-66
2022/11/04 11:07:49;;;;;;;8.87;8.00;;;11.30;99.90;;;;;;5024819;28;20194;-66
2022/11/04 11:10:27;;;;;;;9.23;8.33;;;11.30;99.90;;;;;;5025724;28;20303;-68
2022/11/04 11:12:57;;;;;;;8.47;7.67;;;11.20;99.90;;;;;;5026137;28;20934;-67
2022/11/04 11:15:32;;;;;;;12.90;8.87;;;11.20;99.90;;;;;;5028710;28;20218;-73
2022/11/04 11:18:12;;;;;;;24.23;11.27;;;11.30;99.90;;;;;;5026672;28;20204;-74
2022/11/04 11:20:39;;;;;;;9.20;8.40;;;11.30;99.90;;;;;;5026434;28;20206;-74
2022/11/04 11:23:25;;;;;;;8.17;7.33;;;11.30;99.90;;;;;;5023161;28;20205;-73
2022/11/04 11:25:51;;;;;;;8.67;7.50;;;11.30;99.90;;;;;;5025716;28;20217;-75
2022/11/04 11:28:23;;;;;;;9.87;7.23;;;11.40;99.90;;;;;;5021613;28;20258;-75
2022/11/04 11:30:57;;;;;;;8.70;7.83;;;11.40;99.90;;;;;;5025369;28;20213;-75
2022/11/04 11:33:35;;;;;;;9.47;8.20;;;11.50;99.90;;;;;;5025213;28;20225;-75
2022/11/04 11:36:23;;;;;;;11.10;8.03;;;11.50;99.90;;;;;;5022059;28;20247;-74
2022/11/04 11:38:56;;;;;;;13.50;9.57;;;11.50;99.90;;;;;;5024829;28;20205;-75
2022/11/04 11:41:30;;;;;;;9.07;7.77;;;11.50;99.90;;;;;;5024714;28;20205;-74
2022/11/04 11:44:03;;;;;;;10.40;7.80;;;11.60;99.90;;;;;;5019964;28;20207;-74
2022/11/04 11:46:31;;;;;;;11.87;8.67;;;11.60;99.90;;;;;;5026130;28;20233;-74
2022/11/04 11:49:00;;;;;;;11.37;8.67;;;11.60;99.90;;;;;;5028025;28;20228;-75
2022/11/04 11:51:35;;;;;;;9.13;8.23;;;11.60;99.90;;;;;;5026228;28;20672;-70
2022/11/04 11:54:21;;;;;;;8.20;7.43;;;11.60;99.90;;;;;;5029007;28;20253;-68
2022/11/04 11:56:58;;;;;;;12.90;8.87;;;11.60;99.90;;;;;;5025502;28;20729;-75
2022/11/04 11:59:55;;;;;;;10.70;7.83;;;11.60;99.90;;;;;;5025742;28;20208;-69
2022/11/04 12:02:50;;;;;;;7.40;6.80;;;11.60;99.90;;;;;;5027288;28;20262;-75
2022/11/04 12:05:19;;;;;;;9.73;8.40;;;11.60;99.90;;;;;;5025611;28;20205;-75
2022/11/04 12:08:18;;;;;;;9.10;8.27;;;11.50;99.90;;;;;;5024307;28;20209;-75
2022/11/04 12:10:46;;;;;;;9.07;8.17;;;11.60;99.90;;;;;;5026895;28;20710;-73
2022/11/04 12:13:47;;;;;;;11.70;8.83;;;11.60;99.90;;;;;;5026926;28;20259;-74
2022/11/04 12:16:42;;;;;;;8.87;8.07;;;11.50;99.90;;;;;;5022746;28;20441;-68
2022/11/04 12:19:28;;;;;;;8.10;7.40;;;11.50;99.90;;;;;;5024746;28;20232;-74
2022/11/04 12:22:07;;;;;;;9.23;8.33;;;11.60;99.90;;;;;;5025492;28;20198;-73
2022/11/04 12:24:54;;;;;;;9.97;7.80;;;11.60;99.90;;;;;;5024411;28;20277;-74
2022/11/04 12:27:40;;;;;;;9.30;8.23;;;11.60;99.90;;;;;;5028005;28;20259;-74
2022/11/04 12:30:20;;;;;;;8.23;7.40;;;11.60;99.90;;;;;;5026066;28;20202;-74
2022/11/04 12:33:10;;;;;;;9.83;7.83;;;11.60;99.90;;;;;;5026684;28;20692;-74
2022/11/04 12:35:59;;;;;;;8.07;7.27;;;11.60;99.90;;;;;;5030767;28;20213;-75
2022/11/04 12:38:43;;;;;;;7.67;6.93;;;11.60;99.90;;;;;;5029944;28;20296;-75
2022/11/04 12:41:45;;;;;;;13.57;8.00;;;11.60;99.90;;;;;;5029829;28;20222;-75
2022/11/04 12:44:23;;;;;;;7.43;6.53;;;11.60;99.90;;;;;;5029062;28;20205;-72
2022/11/04 12:47:06;;;;;;;8.17;7.13;;;11.50;99.90;;;;;;5029518;28;20674;-72
2022/11/04 12:49:41;;;;;;;8.00;7.20;;;11.50;99.90;;;;;;5030805;28;20229;-70
2022/11/04 12:52:23;;;;;;;41.70;11.50;;;11.50;99.90;;;;;;5029677;28;20221;-70
2022/11/04 12:55:27;;;;;;;59.33;16.83;;;11.60;99.90;;;;;;5027476;28;20236;-77
2022/11/04 12:58:09;;;;;;;249.40;46.87;;;11.60;99.90;;;;;;5029787;28;20249;-70
2022/11/04 13:00:37;;;;;;;24.67;11.73;;;11.70;99.90;;;;;;5030066;28;20293;-72
2022/11/04 13:03:17;;;;;;;9.30;8.33;;;11.70;99.90;;;;;;5024063;28;20664;-73
2022/11/04 13:06:04;;;;;;;87.93;18.20;;;11.70;99.90;;;;;;5029583;28;20209;-73
2022/11/04 13:08:45;;;;;;;57.07;14.70;;;11.70;99.90;;;;;;5030932;28;20645;-72
2022/11/04 13:11:23;;;;;;;10.50;8.17;;;11.60;99.90;;;;;;5027243;28;20208;-72
2022/11/04 13:14:28;;;;;;;8.80;7.80;;;11.60;99.90;;;;;;5027648;28;20213;-73
2022/11/04 13:16:59;;;;;;;43.40;12.70;;;11.50;99.90;;;;;;5030746;28;20211;-69
2022/11/04 13:19:33;;;;;;;26.03;9.87;;;11.50;99.90;;;;;;5028507;28;20281;-73
2022/11/04 13:22:04;;;;;;;8.80;7.90;;;11.50;99.90;;;;;;5027623;28;20206;-73
2022/11/04 13:24:33;;;;;;;11.37;7.93;;;11.60;99.90;;;;;;5028712;28;20248;-72
2022/11/04 13:27:25;;;;;;;38.33;10.03;;;11.50;99.90;;;;;;5028864;28;20237;-71
2022/11/04 13:30:02;;;;;;;93.97;15.90;;;11.50;99.90;;;;;;5025595;28;20217;-72
2022/11/04 13:32:39;;;;;;;29.90;10.03;;;11.50;99.90;;;;;;5029051;28;20213;-73
2022/11/04 13:35:32;;;;;;;8.23;7.43;;;11.50;99.90;;;;;;5025430;28;20242;-73